sensor_id;sensor_type;location;lat;lon;timestamp;pressure;altitude;pressure_sealevel;temperature;humidity
21803;BME280;18591;47.080;22.214;2023-02-24T00:01:14;99491.22;;;7.99;51.71
21803;BME280;18591;47.080;22.214;2023-02-24T00:03:24;99495.56;;;8.03;51.70
21803;BME280;18591;47.080;22.214;2023-02-24T00:05:27;99498.22;;;8.04;51.52
21803;BME280;18591;47.080;22.214;2023-02-24T00:07:31;99489.38;;;8.01;51.65
21803;BME280;18591;47.080;22.214;2023-02-24T00:09:33;99492.97;;;8.00;51.29
21803;BME280;18591;47.080;22.214;2023-02-24T00:11:37;99498.50;;;7.94;51.77
21803;BME280;18591;47.080;22.214;2023-02-24T00:13:40;99494.03;;;7.94;51.66
21803;BME280;18591;47.080;22.214;2023-02-24T00:15:58;99490.78;;;7.83;52.18
21803;BME280;18591;47.080;22.214;2023-02-24T00:18:02;99493.22;;;7.91;52.03
21803;BME280;18591;47.080;22.214;2023-02-24T00:20:08;99492.38;;;7.89;51.95
21803;BME280;18591;47.080;22.214;2023-02-24T00:22:13;99486.22;;;7.87;51.71
21803;BME280;18591;47.080;22.214;2023-02-24T00:24:15;99488.94;;;7.85;52.13
21803;BME280;18591;47.080;22.214;2023-02-24T00:26:17;99489.88;;;7.84;51.77
21803;BME280;18591;47.080;22.214;2023-02-24T00:28:21;99482.69;;;7.86;52.01
21803;BME280;18591;47.080;22.214;2023-02-24T00:30:24;99489.81;;;7.85;52.13
21803;BME280;18591;47.080;22.214;2023-02-24T00:32:28;99483.88;;;7.76;52.13
21803;BME280;18591;47.080;22.214;2023-02-24T00:34:33;99478.41;;;7.79;52.05
21803;BME280;18591;47.080;22.214;2023-02-24T00:36:36;99480.22;;;7.78;51.71
21803;BME280;18591;47.080;22.214;2023-02-24T00:38:39;99488.28;;;7.77;51.87
21803;BME280;18591;47.080;22.214;2023-02-24T00:40:45;99479.81;;;7.61;52.44
21803;BME280;18591;47.080;22.214;2023-02-24T00:42:49;99483.97;;;7.71;51.33
21803;BME280;18591;47.080;22.214;2023-02-24T00:44:51;99479.59;;;7.69;51.39
21803;BME280;18591;47.080;22.214;2023-02-24T00:46:55;99481.34;;;7.70;52.01
21803;BME280;18591;47.080;22.214;2023-02-24T00:48:57;99475.31;;;7.63;51.99
21803;BME280;18591;47.080;22.214;2023-02-24T00:51:00;99470.94;;;7.59;53.03
21803;BME280;18591;47.080;22.214;2023-02-24T00:53:03;99478.19;;;7.55;52.77
21803;BME280;18591;47.080;22.214;2023-02-24T00:55:06;99472.84;;;7.55;51.95
21803;BME280;18591;47.080;22.214;2023-02-24T00:57:15;99463.84;;;7.58;52.37
21803;BME280;18591;47.080;22.214;2023-02-24T00:59:23;99469.22;;;7.56;51.90
21803;BME280;18591;47.080;22.214;2023-02-24T01:01:32;99463.88;;;7.56;52.07
21803;BME280;18591;47.080;22.214;2023-02-24T01:03:34;99471.06;;;7.54;52.39
21803;BME280;18591;47.080;22.214;2023-02-24T01:05:36;99462.19;;;7.52;51.90
21803;BME280;18591;47.080;22.214;2023-02-24T01:07:39;99459.69;;;7.46;52.19
21803;BME280;18591;47.080;22.214;2023-02-24T01:09:41;99459.59;;;7.51;52.41
21803;BME280;18591;47.080;22.214;2023-02-24T01:11:46;99463.25;;;7.47;51.70
21803;BME280;18591;47.080;22.214;2023-02-24T01:14:11;99459.22;;;7.30;52.97
21803;BME280;18591;47.080;22.214;2023-02-24T01:16:15;99465.28;;;7.37;52.50
21803;BME280;18591;47.080;22.214;2023-02-24T01:18:19;99456.25;;;7.43;52.31
21803;BME280;18591;47.080;22.214;2023-02-24T01:20:21;99459.88;;;7.40;52.31
21803;BME280;18591;47.080;22.214;2023-02-24T01:22:23;99452.88;;;7.34;52.77
21803;BME280;18591;47.080;22.214;2023-02-24T01:24:32;99447.59;;;7.31;54.04
21803;BME280;18591;47.080;22.214;2023-02-24T01:26:36;99455.72;;;7.28;53.18
21803;BME280;18591;47.080;22.214;2023-02-24T01:28:41;99446.19;;;7.18;53.50
21803;BME280;18591;47.080;22.214;2023-02-24T01:30:46;99450.53;;;7.22;53.21
21803;BME280;18591;47.080;22.214;2023-02-24T01:32:48;99441.47;;;7.28;53.36
21803;BME280;18591;47.080;22.214;2023-02-24T01:34:52;99438.84;;;7.26;53.50
21803;BME280;18591;47.080;22.214;2023-02-24T01:36:54;99441.91;;;7.11;53.37
21803;BME280;18591;47.080;22.214;2023-02-24T01:38:58;99439.91;;;7.19;53.25
21803;BME280;18591;47.080;22.214;2023-02-24T01:41:00;99434.53;;;7.20;53.24
21803;BME280;18591;47.080;22.214;2023-02-24T01:43:05;99430.94;;;7.22;53.30
21803;BME280;18591;47.080;22.214;2023-02-24T01:45:13;99431.91;;;7.19;53.82
21803;BME280;18591;47.080;22.214;2023-02-24T01:47:17;99429.38;;;7.14;53.53
21803;BME280;18591;47.080;22.214;2023-02-24T01:49:35;99426.75;;;7.11;53.98
21803;BME280;18591;47.080;22.214;2023-02-24T01:51:53;99430.75;;;6.95;54.44
21803;BME280;18591;47.080;22.214;2023-02-24T01:53:58;99430.56;;;7.03;54.29
21803;BME280;18591;47.080;22.214;2023-02-24T01:56:01;99431.50;;;7.00;53.95
21803;BME280;18591;47.080;22.214;2023-02-24T01:58:08;99427.13;;;6.97;54.73
21803;BME280;18591;47.080;22.214;2023-02-24T02:00:14;99431.34;;;7.06;53.65
21803;BME280;18591;47.080;22.214;2023-02-24T02:02:32;99430.47;;;7.06;53.71
21803;BME280;18591;47.080;22.214;2023-02-24T02:04:39;99434.09;;;7.03;53.67
21803;BME280;18591;47.080;22.214;2023-02-24T02:06:44;99422.69;;;6.96;54.40
21803;BME280;18591;47.080;22.214;2023-02-24T02:08:47;99424.63;;;6.91;53.96
21803;BME280;18591;47.080;22.214;2023-02-24T02:10:51;99427.31;;;6.90;54.14
21803;BME280;18591;47.080;22.214;2023-02-24T02:12:59;99427.34;;;6.88;55.19
21803;BME280;18591;47.080;22.214;2023-02-24T02:15:06;99423.88;;;6.85;54.31
21803;BME280;18591;47.080;22.214;2023-02-24T02:37:15;99418.44;;;6.88;55.17
21803;BME280;18591;47.080;22.214;2023-02-24T02:39:33;99417.50;;;6.90;54.95
21803;BME280;18591;47.080;22.214;2023-02-24T02:44:23;99412.16;;;6.90;55.01
21803;BME280;18591;47.080;22.214;2023-02-24T02:46:55;99412.34;;;6.83;56.08
21803;BME280;18591;47.080;22.214;2023-02-24T02:51:23;99406.94;;;6.86;55.90
21803;BME280;18591;47.080;22.214;2023-02-24T02:53:35;99407.97;;;6.80;55.74
21803;BME280;18591;47.080;22.214;2023-02-24T02:55:47;99409.00;;;6.74;56.11
21803;BME280;18591;47.080;22.214;2023-02-24T02:57:55;99408.78;;;6.84;55.94
21803;BME280;18591;47.080;22.214;2023-02-24T03:00:09;99417.59;;;6.87;55.64
21803;BME280;18591;47.080;22.214;2023-02-24T03:02:25;99419.28;;;6.91;55.34
21803;BME280;18591;47.080;22.214;2023-02-24T03:04:30;99413.09;;;6.89;55.38
21803;BME280;18591;47.080;22.214;2023-02-24T03:06:38;99410.44;;;6.88;55.01
21803;BME280;18591;47.080;22.214;2023-02-24T03:08:58;99419.31;;;6.88;54.71
21803;BME280;18591;47.080;22.214;2023-02-24T03:11:03;99411.38;;;6.87;54.76
21803;BME280;18591;47.080;22.214;2023-02-24T03:13:09;99414.81;;;6.92;55.08
21803;BME280;18591;47.080;22.214;2023-02-24T03:15:20;99412.22;;;6.89;54.73
21803;BME280;18591;47.080;22.214;2023-02-24T03:17:26;99411.19;;;6.93;54.83
21803;BME280;18591;47.080;22.214;2023-02-24T03:19:37;99413.97;;;6.88;54.70
21803;BME280;18591;47.080;22.214;2023-02-24T03:21:43;99417.59;;;6.86;54.75
21803;BME280;18591;47.080;22.214;2023-02-24T03:23:49;99413.00;;;6.92;54.87
21803;BME280;18591;47.080;22.214;2023-02-24T03:26:03;99416.81;;;6.82;54.92
21803;BME280;18591;47.080;22.214;2023-02-24T03:28:17;99417.59;;;6.87;55.04
21803;BME280;18591;47.080;22.214;2023-02-24T03:30:27;99410.53;;;6.85;55.23
21803;BME280;18591;47.080;22.214;2023-02-24T03:32:55;99415.09;;;6.80;56.78
21803;BME280;18591;47.080;22.214;2023-02-24T03:35:10;99414.13;;;6.84;55.46
21803;BME280;18591;47.080;22.214;2023-02-24T03:37:15;99416.63;;;6.90;55.84
21803;BME280;18591;47.080;22.214;2023-02-24T03:39:17;99412.25;;;6.86;55.95
21803;BME280;18591;47.080;22.214;2023-02-24T03:41:54;99414.88;;;6.89;56.82
21803;BME280;18591;47.080;22.214;2023-02-24T03:44:00;99409.34;;;6.96;56.44
21803;BME280;18591;47.080;22.214;2023-02-24T03:46:05;99405.09;;;6.88;56.18
21803;BME280;18591;47.080;22.214;2023-02-24T03:48:09;99402.50;;;6.85;57.45
21803;BME280;18591;47.080;22.214;2023-02-24T03:50:19;99394.31;;;6.92;57.06
21803;BME280;18591;47.080;22.214;2023-02-24T03:52:58;99398.88;;;6.87;57.89
21803;BME280;18591;47.080;22.214;2023-02-24T04:00:14;99387.16;;;6.93;58.07
21803;BME280;18591;47.080;22.214;2023-02-24T04:02:36;99382.34;;;7.07;56.94
21803;BME280;18591;47.080;22.214;2023-02-24T04:05:01;99379.97;;;6.96;58.23
21803;BME280;18591;47.080;22.214;2023-02-24T04:07:44;99370.91;;;7.02;58.63
21803;BME280;18591;47.080;22.214;2023-02-24T04:10:13;99368.13;;;7.07;57.90
21803;BME280;18591;47.080;22.214;2023-02-24T04:12:30;99367.97;;;7.11;58.25
21803;BME280;18591;47.080;22.214;2023-02-24T04:17:19;99357.59;;;7.01;59.58
21803;BME280;18591;47.080;22.214;2023-02-24T04:19:26;99353.94;;;7.05;58.30
21803;BME280;18591;47.080;22.214;2023-02-24T04:21:31;99355.63;;;7.07;58.79
21803;BME280;18591;47.080;22.214;2023-02-24T04:23:39;99355.66;;;7.06;58.39
21803;BME280;18591;47.080;22.214;2023-02-24T04:25:48;99351.16;;;7.08;59.08
21803;BME280;18591;47.080;22.214;2023-02-24T04:27:53;99349.38;;;7.08;58.61
21803;BME280;18591;47.080;22.214;2023-02-24T04:29:58;99347.53;;;7.10;58.55
21803;BME280;18591;47.080;22.214;2023-02-24T04:32:05;99336.84;;;7.10;58.97
21803;BME280;18591;47.080;22.214;2023-02-24T04:34:11;99343.94;;;7.11;58.83
21803;BME280;18591;47.080;22.214;2023-02-24T04:36:17;99338.66;;;7.10;59.35
21803;BME280;18591;47.080;22.214;2023-02-24T04:38:20;99327.88;;;7.13;58.82
21803;BME280;18591;47.080;22.214;2023-02-24T04:40:23;99323.28;;;7.18;58.90
21803;BME280;18591;47.080;22.214;2023-02-24T04:42:26;99329.47;;;7.20;58.43
21803;BME280;18591;47.080;22.214;2023-02-24T04:44:28;99325.03;;;7.19;58.82
21803;BME280;18591;47.080;22.214;2023-02-24T04:46:30;99312.63;;;7.16;59.73
21803;BME280;18591;47.080;22.214;2023-02-24T04:48:34;99312.63;;;7.16;59.71
21803;BME280;18591;47.080;22.214;2023-02-24T04:50:36;99306.47;;;7.14;59.58
21803;BME280;18591;47.080;22.214;2023-02-24T04:52:39;99314.28;;;7.22;58.57
21803;BME280;18591;47.080;22.214;2023-02-24T04:54:42;99312.50;;;7.21;59.13
21803;BME280;18591;47.080;22.214;2023-02-24T04:56:50;99315.38;;;7.15;60.04
21803;BME280;18591;47.080;22.214;2023-02-24T04:58:52;99315.19;;;7.21;59.50
21803;BME280;18591;47.080;22.214;2023-02-24T05:01:06;99301.66;;;7.27;59.43
21803;BME280;18591;47.080;22.214;2023-02-24T05:03:11;99312.25;;;7.30;58.99
21803;BME280;18591;47.080;22.214;2023-02-24T05:05:14;99302.63;;;7.25;58.70
21803;BME280;18591;47.080;22.214;2023-02-24T05:07:19;99300.72;;;7.28;58.83
21803;BME280;18591;47.080;22.214;2023-02-24T05:09:23;99297.97;;;7.31;58.82
21803;BME280;18591;47.080;22.214;2023-02-24T05:11:31;99294.31;;;7.34;59.21
21803;BME280;18591;47.080;22.214;2023-02-24T05:13:35;99293.47;;;7.33;59.41
21803;BME280;18591;47.080;22.214;2023-02-24T05:15:40;99289.94;;;7.31;59.90
21803;BME280;18591;47.080;22.214;2023-02-24T05:17:43;99300.41;;;7.39;59.54
21803;BME280;18591;47.080;22.214;2023-02-24T05:19:45;99295.06;;;7.39;59.84
21803;BME280;18591;47.080;22.214;2023-02-24T05:22:13;99299.56;;;7.37;59.73
21803;BME280;18591;47.080;22.214;2023-02-24T05:24:18;99291.44;;;7.41;59.32
21803;BME280;18591;47.080;22.214;2023-02-24T05:26:21;99295.88;;;7.43;59.55
21803;BME280;18591;47.080;22.214;2023-02-24T05:28:29;99299.31;;;7.46;59.09
21803;BME280;18591;47.080;22.214;2023-02-24T05:30:34;99285.97;;;7.46;59.70
21803;BME280;18591;47.080;22.214;2023-02-24T05:32:36;99299.28;;;7.48;59.25
21803;BME280;18591;47.080;22.214;2023-02-24T05:34:39;99298.38;;;7.47;59.32
21803;BME280;18591;47.080;22.214;2023-02-24T05:36:43;99303.59;;;7.52;59.12
21803;BME280;18591;47.080;22.214;2023-02-24T05:38:49;99305.44;;;7.50;59.84
21803;BME280;18591;47.080;22.214;2023-02-24T05:41:09;99304.69;;;7.45;60.88
21803;BME280;18591;47.080;22.214;2023-02-24T05:43:17;99300.91;;;7.53;59.88
21803;BME280;18591;47.080;22.214;2023-02-24T05:45:20;99306.03;;;7.61;59.41
21803;BME280;18591;47.080;22.214;2023-02-24T05:47:22;99307.00;;;7.58;59.62
21803;BME280;18591;47.080;22.214;2023-02-24T05:49:28;99310.53;;;7.59;59.46
21803;BME280;18591;47.080;22.214;2023-02-24T05:51:35;99303.44;;;7.58;59.61
21803;BME280;18591;47.080;22.214;2023-02-24T05:53:40;99306.88;;;7.61;59.71
21803;BME280;18591;47.080;22.214;2023-02-24T05:55:44;99308.59;;;7.64;59.77
21803;BME280;18591;47.080;22.214;2023-02-24T05:57:47;99311.06;;;7.70;59.08
21803;BME280;18591;47.080;22.214;2023-02-24T05:59:51;99310.44;;;7.62;59.95
21803;BME280;18591;47.080;22.214;2023-02-24T06:02:00;99301.50;;;7.63;59.80
21803;BME280;18591;47.080;22.214;2023-02-24T06:04:08;99309.59;;;7.60;59.93
21803;BME280;18591;47.080;22.214;2023-02-24T06:06:12;99310.44;;;7.62;59.75
21803;BME280;18591;47.080;22.214;2023-02-24T06:08:14;99301.50;;;7.63;59.85
21803;BME280;18591;47.080;22.214;2023-02-24T06:10:17;99309.38;;;7.68;59.52
21803;BME280;18591;47.080;22.214;2023-02-24T06:12:32;99298.59;;;7.71;60.08
21803;BME280;18591;47.080;22.214;2023-02-24T06:14:35;99298.09;;;7.58;61.62
21803;BME280;18591;47.080;22.214;2023-02-24T06:16:39;99300.44;;;7.69;60.67
21803;BME280;18591;47.080;22.214;2023-02-24T06:18:46;99307.50;;;7.71;61.16
21803;BME280;18591;47.080;22.214;2023-02-24T06:20:48;99303.13;;;7.69;61.41
21803;BME280;18591;47.080;22.214;2023-02-24T06:22:55;99297.63;;;7.73;61.42
21803;BME280;18591;47.080;22.214;2023-02-24T06:25:00;99300.84;;;7.84;61.04
21803;BME280;18591;47.080;22.214;2023-02-24T06:27:04;99298.44;;;7.75;62.94
21803;BME280;18591;47.080;22.214;2023-02-24T06:29:18;99295.41;;;7.88;61.38
21803;BME280;18591;47.080;22.214;2023-02-24T06:31:21;99292.63;;;7.91;61.22
21803;BME280;18591;47.080;22.214;2023-02-24T06:33:24;99288.09;;;7.93;61.34
21803;BME280;18591;47.080;22.214;2023-02-24T06:35:27;99285.38;;;7.94;60.75
21803;BME280;18591;47.080;22.214;2023-02-24T06:37:30;99291.63;;;7.95;60.68
21803;BME280;18591;47.080;22.214;2023-02-24T06:39:33;99283.59;;;7.95;61.19
21803;BME280;18591;47.080;22.214;2023-02-24T06:41:37;99286.19;;;7.96;61.06
21803;BME280;18591;47.080;22.214;2023-02-24T06:43:42;99279.06;;;7.97;61.63
21803;BME280;18591;47.080;22.214;2023-02-24T06:45:45;99285.44;;;7.93;61.98
21803;BME280;18591;47.080;22.214;2023-02-24T06:47:47;99282.97;;;7.87;63.05
21803;BME280;18591;47.080;22.214;2023-02-24T06:49:50;99275.69;;;7.90;62.68
21803;BME280;18591;47.080;22.214;2023-02-24T06:51:53;99271.03;;;7.97;62.69
21803;BME280;18591;47.080;22.214;2023-02-24T06:53:56;99264.63;;;8.02;62.62
21803;BME280;18591;47.080;22.214;2023-02-24T06:56:04;99261.88;;;8.04;63.18
21803;BME280;18591;47.080;22.214;2023-02-24T06:58:17;99267.03;;;8.10;63.24
21803;BME280;18591;47.080;22.214;2023-02-24T07:00:20;99259.66;;;8.17;63.20
21803;BME280;18591;47.080;22.214;2023-02-24T07:02:25;99254.06;;;8.24;62.79
21803;BME280;18591;47.080;22.214;2023-02-24T07:04:40;99254.75;;;8.31;62.09
21803;BME280;18591;47.080;22.214;2023-02-24T07:06:48;99252.28;;;8.25;62.98
21803;BME280;18591;47.080;22.214;2023-02-24T07:08:53;99256.41;;;8.35;61.96
21803;BME280;18591;47.080;22.214;2023-02-24T07:10:56;99250.22;;;8.33;63.11
21803;BME280;18591;47.080;22.214;2023-02-24T07:13:00;99259.84;;;8.39;63.13
21803;BME280;18591;47.080;22.214;2023-02-24T07:15:03;99248.03;;;8.46;62.49
21803;BME280;18591;47.080;22.214;2023-02-24T07:17:08;99255.34;;;8.41;62.86
21803;BME280;18591;47.080;22.214;2023-02-24T07:19:14;99257.16;;;8.40;63.43
21803;BME280;18591;47.080;22.214;2023-02-24T07:21:17;99253.50;;;8.43;63.15
21803;BME280;18591;47.080;22.214;2023-02-24T07:23:22;99255.44;;;8.38;63.24
21803;BME280;18591;47.080;22.214;2023-02-24T07:25:24;99254.28;;;8.46;62.71
21803;BME280;18591;47.080;22.214;2023-02-24T07:27:36;99255.13;;;8.47;62.23
21803;BME280;18591;47.080;22.214;2023-02-24T07:29:38;99255.22;;;8.45;63.34
21803;BME280;18591;47.080;22.214;2023-02-24T07:31:41;99253.25;;;8.50;62.45
21803;BME280;18591;47.080;22.214;2023-02-24T07:33:44;99246.13;;;8.49;62.94
21803;BME280;18591;47.080;22.214;2023-02-24T07:35:50;99246.09;;;8.51;62.79
21803;BME280;18591;47.080;22.214;2023-02-24T07:37:52;99247.09;;;8.47;63.68
21803;BME280;18591;47.080;22.214;2023-02-24T07:39:56;99238.91;;;8.52;63.70
21803;BME280;18591;47.080;22.214;2023-02-24T07:41:59;99240.25;;;8.65;62.51
21803;BME280;18591;47.080;22.214;2023-02-24T07:44:01;99228.09;;;8.55;64.06
21803;BME280;18591;47.080;22.214;2023-02-24T07:46:08;99237.94;;;8.54;63.31
21803;BME280;18591;47.080;22.214;2023-02-24T07:48:12;99233.44;;;8.55;63.89
21803;BME280;18591;47.080;22.214;2023-02-24T07:50:15;99229.75;;;8.59;64.11
21803;BME280;18591;47.080;22.214;2023-02-24T07:52:19;99231.59;;;8.57;64.04
21803;BME280;18591;47.080;22.214;2023-02-24T07:54:22;99225.03;;;8.65;63.23
21803;BME280;18591;47.080;22.214;2023-02-24T07:56:27;99223.16;;;8.69;63.25
21803;BME280;18591;47.080;22.214;2023-02-24T07:58:29;99227.44;;;8.73;63.23
21803;BME280;18591;47.080;22.214;2023-02-24T08:00:34;99229.13;;;8.76;62.74
21803;BME280;18591;47.080;22.214;2023-02-24T08:02:56;99231.63;;;8.82;62.54
21803;BME280;18591;47.080;22.214;2023-02-24T08:05:01;99225.28;;;8.84;63.13
21803;BME280;18591;47.080;22.214;2023-02-24T08:07:03;99225.81;;;8.69;63.77
21803;BME280;18591;47.080;22.214;2023-02-24T08:09:11;99220.22;;;8.75;63.47
21803;BME280;18591;47.080;22.214;2023-02-24T08:11:21;99223.84;;;8.74;63.69
21803;BME280;18591;47.080;22.214;2023-02-24T08:13:25;99222.16;;;8.71;63.58
21803;BME280;18591;47.080;22.214;2023-02-24T08:15:35;99216.47;;;8.81;62.91
21803;BME280;18591;47.080;22.214;2023-02-24T08:17:37;99213.25;;;8.71;64.08
21803;BME280;18591;47.080;22.214;2023-02-24T08:19:41;99206.84;;;8.75;63.71
21803;BME280;18591;47.080;22.214;2023-02-24T08:21:51;99215.28;;;8.64;64.68
21803;BME280;18591;47.080;22.214;2023-02-24T08:23:53;99210.50;;;8.72;63.46
21803;BME280;18591;47.080;22.214;2023-02-24T08:25:56;99212.44;;;8.69;63.94
21803;BME280;18591;47.080;22.214;2023-02-24T08:27:58;99206.03;;;8.73;63.85
21803;BME280;18591;47.080;22.214;2023-02-24T08:30:11;99211.88;;;8.84;63.49
21803;BME280;18591;47.080;22.214;2023-02-24T08:32:30;99211.66;;;8.90;63.96
21803;BME280;18591;47.080;22.214;2023-02-24T08:34:35;99211.59;;;8.92;64.41
21803;BME280;18591;47.080;22.214;2023-02-24T08:36:38;99217.94;;;8.89;64.32
21803;BME280;18591;47.080;22.214;2023-02-24T08:38:40;99214.00;;;8.75;64.56
21803;BME280;18591;47.080;22.214;2023-02-24T08:40:53;99208.69;;;8.73;64.70
21803;BME280;18591;47.080;22.214;2023-02-24T08:45:17;99211.00;;;8.84;65.22
21803;BME280;18591;47.080;22.214;2023-02-24T08:47:19;99210.03;;;8.86;64.87
21803;BME280;18591;47.080;22.214;2023-02-24T08:49:22;99209.03;;;8.89;65.21
21803;BME280;18591;47.080;22.214;2023-02-24T08:51:31;99207.28;;;8.88;66.13
21803;BME280;18591;47.080;22.214;2023-02-24T08:53:37;99206.28;;;8.90;65.16
21803;BME280;18591;47.080;22.214;2023-02-24T08:55:41;99204.56;;;8.89;65.58
21803;BME280;18591;47.080;22.214;2023-02-24T08:57:43;99198.31;;;8.89;66.00
21803;BME280;18591;47.080;22.214;2023-02-24T08:59:54;99198.91;;;8.97;65.02
21803;BME280;18591;47.080;22.214;2023-02-24T09:01:59;99199.63;;;9.02;65.10
21803;BME280;18591;47.080;22.214;2023-02-24T09:04:24;99200.38;;;9.06;65.36
21803;BME280;18591;47.080;22.214;2023-02-24T09:06:47;99190.16;;;8.92;67.02
21803;BME280;18591;47.080;22.214;2023-02-24T09:08:55;99191.41;;;9.07;66.16
21803;BME280;18591;47.080;22.214;2023-02-24T09:11:15;99179.09;;;9.01;66.08
21803;BME280;18591;47.080;22.214;2023-02-24T09:13:18;99176.19;;;9.07;66.04
21803;BME280;18591;47.080;22.214;2023-02-24T09:15:20;99184.06;;;9.12;65.55
21803;BME280;18591;47.080;22.214;2023-02-24T09:17:27;99180.06;;;9.22;65.03
21803;BME280;18591;47.080;22.214;2023-02-24T09:20:03;99180.06;;;9.22;64.91
21803;BME280;18591;47.080;22.214;2023-02-24T09:22:29;99182.75;;;9.22;65.80
21803;BME280;18591;47.080;22.214;2023-02-24T09:25:05;99169.19;;;9.27;66.15
21803;BME280;18591;47.080;22.214;2023-02-24T09:27:23;99173.63;;;9.28;66.00
21803;BME280;18591;47.080;22.214;2023-02-24T09:29:30;99179.47;;;9.15;67.06
21803;BME280;18591;47.080;22.214;2023-02-24T09:31:34;99175.50;;;9.26;66.12
21803;BME280;18591;47.080;22.214;2023-02-24T09:33:56;99167.16;;;9.33;66.17
21803;BME280;18591;47.080;22.214;2023-02-24T09:36:13;99177.91;;;9.32;66.26
21803;BME280;18591;47.080;22.214;2023-02-24T09:38:29;99174.19;;;9.36;65.86
21803;BME280;18591;47.080;22.214;2023-02-24T09:40:50;99165.09;;;9.40;66.38
21803;BME280;18591;47.080;22.214;2023-02-24T09:42:53;99164.16;;;9.41;65.96
21803;BME280;18591;47.080;22.214;2023-02-24T09:45:05;99170.34;;;9.43;66.57
21803;BME280;18591;47.080;22.214;2023-02-24T09:47:19;99161.41;;;9.43;67.47
21803;BME280;18591;47.080;22.214;2023-02-24T09:49:55;99156.19;;;9.40;66.95
21803;BME280;18591;47.080;22.214;2023-02-24T09:52:00;99155.00;;;9.47;66.06
21803;BME280;18591;47.080;22.214;2023-02-24T09:54:19;99153.16;;;9.49;66.54
21803;BME280;18591;47.080;22.214;2023-02-24T09:56:33;99151.31;;;9.49;66.03
21803;BME280;18591;47.080;22.214;2023-02-24T10:01:38;99143.72;;;9.60;65.33
21803;BME280;18591;47.080;22.214;2023-02-24T10:06:02;99130.94;;;9.67;65.39
21803;BME280;18591;47.080;22.214;2023-02-24T10:08:20;99123.63;;;9.71;65.60
21803;BME280;18591;47.080;22.214;2023-02-24T10:10:28;99121.63;;;9.76;65.19
21803;BME280;18591;47.080;22.214;2023-02-24T10:12:36;99114.78;;;9.69;66.13
21803;BME280;18591;47.080;22.214;2023-02-24T10:16:53;99116.25;;;9.76;65.54
21803;BME280;18591;47.080;22.214;2023-02-24T10:19:23;99116.22;;;9.77;65.90
21803;BME280;18591;47.080;22.214;2023-02-24T10:21:33;99105.22;;;9.84;65.29
21803;BME280;18591;47.080;22.214;2023-02-24T10:26:35;99096.16;;;9.86;64.93
21803;BME280;18591;47.080;22.214;2023-02-24T10:29:07;99090.00;;;9.84;65.06
21803;BME280;18591;47.080;22.214;2023-02-24T10:31:29;99087.56;;;9.78;65.70
21803;BME280;18591;47.080;22.214;2023-02-24T10:33:40;99076.47;;;9.87;65.00
21803;BME280;18591;47.080;22.214;2023-02-24T10:35:46;99078.13;;;9.90;65.16
21803;BME280;18591;47.080;22.214;2023-02-24T10:37:48;99067.47;;;9.88;64.96
21803;BME280;18591;47.080;22.214;2023-02-24T10:39:55;99062.91;;;9.90;64.85
21803;BME280;18591;47.080;22.214;2023-02-24T10:42:00;99052.56;;;9.81;65.49
21803;BME280;18591;47.080;22.214;2023-02-24T10:44:20;99045.28;;;9.85;65.38
21803;BME280;18591;47.080;22.214;2023-02-24T10:46:30;99036.28;;;9.86;65.23
21803;BME280;18591;47.080;22.214;2023-02-24T10:48:51;99038.91;;;9.87;65.10
21803;BME280;18591;47.080;22.214;2023-02-24T10:50:54;99033.38;;;9.90;64.98
21803;BME280;18591;47.080;22.214;2023-02-24T10:53:14;99030.84;;;9.87;65.45
21803;BME280;18591;47.080;22.214;2023-02-24T10:57:46;99022.66;;;9.90;65.49
21803;BME280;18591;47.080;22.214;2023-02-24T11:00:00;99012.88;;;9.89;65.94
21803;BME280;18591;47.080;22.214;2023-02-24T11:02:25;99017.09;;;9.95;65.67
21803;BME280;18591;47.080;22.214;2023-02-24T11:04:37;99008.19;;;9.94;65.15
21803;BME280;18591;47.080;22.214;2023-02-24T11:07:11;99007.22;;;9.95;65.46
21803;BME280;18591;47.080;22.214;2023-02-24T11:09:16;98996.69;;;9.91;65.42
21803;BME280;18591;47.080;22.214;2023-02-24T11:11:33;98987.84;;;9.89;66.06
21803;BME280;18591;47.080;22.214;2023-02-24T11:13:57;98997.44;;;9.94;66.24
21803;BME280;18591;47.080;22.214;2023-02-24T11:16:19;98997.97;;;10.02;65.63
21803;BME280;18591;47.080;22.214;2023-02-24T11:18:45;99000.38;;;10.09;65.70
21803;BME280;18591;47.080;22.214;2023-02-24T11:22:54;98991.13;;;10.16;65.97
21803;BME280;18591;47.080;22.214;2023-02-24T11:25:06;98985.34;;;10.25;65.51
21803;BME280;18591;47.080;22.214;2023-02-24T11:27:09;98979.84;;;10.28;65.68
21803;BME280;18591;47.080;22.214;2023-02-24T11:38:54;98969.13;;;10.27;65.36
21803;BME280;18591;47.080;22.214;2023-02-24T11:41:26;98961.56;;;10.36;64.95
21803;BME280;18591;47.080;22.214;2023-02-24T11:43:33;98959.50;;;10.43;64.53
21803;BME280;18591;47.080;22.214;2023-02-24T11:45:45;98964.97;;;10.40;65.07
21803;BME280;18591;47.080;22.214;2023-02-24T11:48:40;98957.56;;;10.45;64.67
21803;BME280;18591;47.080;22.214;2023-02-24T11:50:25;98957.38;;;10.50;64.66
21803;BME280;18591;47.080;22.214;2023-02-24T11:52:34;98951.84;;;10.53;64.65
21803;BME280;18591;47.080;22.214;2023-02-24T11:54:44;98967.91;;;10.54;64.32
21803;BME280;18591;47.080;22.214;2023-02-24T11:56:52;98930.31;;;10.54;63.92
21803;BME280;18591;47.080;22.214;2023-02-24T12:01:09;98935.22;;;10.63;64.03
21803;BME280;18591;47.080;22.214;2023-02-24T12:03:16;98938.13;;;10.59;64.16
21803;BME280;18591;47.080;22.214;2023-02-24T12:05:29;98928.41;;;10.56;64.42
21803;BME280;18591;47.080;22.214;2023-02-24T12:07:44;98923.69;;;10.61;64.04
21803;BME280;18591;47.080;22.214;2023-02-24T12:10:05;98923.38;;;10.67;64.29
21803;BME280;18591;47.080;22.214;2023-02-24T12:12:34;98921.94;;;10.60;64.34
21803;BME280;18591;47.080;22.214;2023-02-24T12:14:44;98916.94;;;10.72;64.24
21803;BME280;18591;47.080;22.214;2023-02-24T12:16:55;98909.59;;;10.75;64.71
21803;BME280;18591;47.080;22.214;2023-02-24T12:19:05;98905.72;;;10.81;63.94
21803;BME280;18591;47.080;22.214;2023-02-24T12:21:19;98901.16;;;10.83;64.01
21803;BME280;18591;47.080;22.214;2023-02-24T12:25:47;98896.34;;;10.89;63.66